KASH/ASH METAR and TAF weather

Enter ICAO airport designator
Station Type Date Time Source
KASH METAR 2020/03/31 20:56 UTC NOAA

KASH 312056Z 31003KT 10SM SCT035 09/M05 A2999 RMK AO2 SLP160 T00941050 56012


Station Type Date Time Source
KASH Decoded METAR 2020/03/31 20:56 UTC NOAA

Nashua, Boire Field Airport, NH, United States (KASH) 42-46-54N 071-30-53W
Mar 31, 2020 - 04:56 PM EDT / 2020.03.31 2056 UTC
Wind: from the NW (310 degrees) at 3 MPH (3 KT):0
Visibility: 10 mile(s):0
Sky conditions: partly cloudy
Temperature: 48.9 F (9.4 C)
Dew Point: 23.0 F (-5.0 C)
Relative Humidity: 35%
Pressure (altimeter): 29.99 in. Hg (1015 hPa)
Pressure tendency: 0.04 inches (1.2 hPa) lower than three hours ago
ob: KASH 312056Z 31003KT 10SM SCT035 09/M05 A2999 RMK AO2 SLP160 T00941050 56012
cycle: 21

Station Type Date Time Source
KASH TAF UTC NOAA

Error!

Example: see airport list